Terminal Aerodrome Forecast
Issued by NWS

Home | Current Version | Previous Version | Text Only | Print | Product List | Glossary On
Versions: 1 2 3 4 5 6 7 8 9 10 11 12 13
000
FTUS42 TJSJ 271800 AAA
TAFJMZ
TAF AMD
TJMZ 271823Z 2718/2818 27010KT P6SM BKN030
     FM272030 09005KT P6SM FEW025
     FM281530 27010KT P6SM SCT020 SCT040
      AMD NOT SKED 2722/2815=

USA.gov is the U.S. government's official web portal to all federal, state and local government web resources and services.